Time;durP1;ratioP1;P1;durP2;ratioP2;P2;SDS_P1;SDS_P2;PMS_P1;PMS_P2;Temp;Humidity;BMP_temperature;BMP_pressure;BME280_temperature;BME280_humidity;BME280_pressure;Samples;Min_cycle;Max_cycle;Signal;HPM_P1;HPM_P2
2022/05/17 00:01:59;;;;;;;15.80;7.07;;;14.30;90.20;;;;;;5055326;28;20674;-88
2022/05/17 00:04:25;;;;;;;12.87;7.17;;;14.30;90.80;;;;;;5038315;28;20736;-88
2022/05/17 00:06:50;;;;;;;16.57;7.97;;;14.20;91.10;;;;;;5038149;28;20172;-88
2022/05/17 00:09:17;;;;;;;18.70;8.13;;;14.30;91.30;;;;;;5055222;28;20169;-87
2022/05/17 00:11:47;;;;;;;16.97;7.57;;;14.30;91.40;;;;;;5038495;28;20192;-87
2022/05/17 00:14:13;;;;;;;14.33;7.40;;;14.20;91.50;;;;;;5055008;28;20172;-87
2022/05/17 00:16:40;;;;;;;10.30;7.40;;;14.20;91.50;;;;;;5038145;28;20267;-88
2022/05/17 00:19:06;;;;;;;13.63;7.40;;;14.10;91.60;;;;;;5056098;28;20168;-87
2022/05/17 00:21:33;;;;;;;14.13;8.20;;;14.00;91.70;;;;;;5054598;28;20191;-87
2022/05/17 00:23:58;;;;;;;13.37;7.13;;;14.10;91.90;;;;;;5054592;28;20657;-87
2022/05/17 00:26:25;;;;;;;15.90;7.60;;;14.20;92.00;;;;;;5038548;28;20199;-88
2022/05/17 00:28:51;;;;;;;14.23;7.50;;;14.20;91.90;;;;;;5055846;28;20718;-88
2022/05/17 00:31:16;;;;;;;14.43;7.90;;;14.20;91.80;;;;;;5057681;28;20271;-88
2022/05/17 00:33:42;;;;;;;13.47;7.40;;;14.30;91.70;;;;;;5039138;28;20706;-88
2022/05/17 00:36:08;;;;;;;12.70;7.07;;;14.20;91.80;;;;;;5038776;28;20191;-89
2022/05/17 00:38:34;;;;;;;13.43;7.30;;;14.30;91.80;;;;;;5039339;28;20226;-88
2022/05/17 00:40:59;;;;;;;18.33;7.47;;;14.30;91.70;;;;;;5040177;28;20199;-88
2022/05/17 00:46:26;;;;;;;12.17;7.57;;;14.40;91.70;;;;;;5057551;28;20241;-88
2022/05/17 00:48:53;;;;;;;11.40;6.77;;;14.50;91.60;;;;;;5056331;28;20152;-88
2022/05/17 00:51:20;;;;;;;12.93;6.73;;;14.40;91.50;;;;;;5038749;28;20208;-88
2022/05/17 00:53:45;;;;;;;9.80;7.53;;;14.30;91.50;;;;;;5055818;28;20182;-89
2022/05/17 00:56:16;;;;;;;15.10;7.20;;;14.30;91.70;;;;;;5056790;28;20183;-88
2022/05/17 00:58:52;;;;;;;11.83;7.43;;;14.30;91.80;;;;;;5056258;28;20203;-88
2022/05/17 01:01:21;;;;;;;12.43;6.87;;;14.20;91.80;;;;;;5038730;28;20195;-89
2022/05/17 01:04:07;;;;;;;14.57;8.33;;;14.20;91.90;;;;;;5038405;28;20176;-89
2022/05/17 01:06:43;;;;;;;17.57;8.13;;;14.20;92.00;;;;;;5038744;28;20709;-88
2022/05/17 01:09:10;;;;;;;11.77;6.90;;;14.30;92.20;;;;;;5038529;28;20174;-88
2022/05/17 01:11:36;;;;;;;11.67;7.57;;;14.30;91.90;;;;;;5038011;28;20203;-88
2022/05/17 01:16:46;;;;;;;12.63;7.40;;;14.30;91.80;;;;;;5056077;28;20241;-88
2022/05/17 01:19:13;;;;;;;11.13;7.60;;;14.30;91.80;;;;;;5055235;28;20543;-88
2022/05/17 01:21:39;;;;;;;12.57;6.95;;;14.40;91.80;;;;;;5037549;28;20575;-88
2022/05/17 01:24:05;;;;;;;12.38;6.95;;;14.50;91.80;;;;;;5037727;28;20186;-88
2022/05/17 01:26:35;;;;;;;12.77;6.80;;;14.50;91.60;;;;;;5037703;28;20271;-88
2022/05/17 01:29:05;;;;;;;10.45;7.53;;;14.60;91.70;;;;;;5037892;28;20199;-88
2022/05/17 01:31:32;;;;;;;11.45;7.20;;;14.60;91.50;;;;;;5055957;28;20192;-88
2022/05/17 01:33:58;;;;;;;10.63;7.18;;;14.50;91.50;;;;;;5055835;28;20255;-89
2022/05/17 01:36:23;;;;;;;14.27;8.17;;;14.50;91.40;;;;;;5037676;28;20207;-88
2022/05/17 01:38:51;;;;;;;10.35;6.63;;;14.50;91.40;;;;;;5055450;28;20217;-88
2022/05/17 01:41:19;;;;;;;10.18;6.15;;;14.60;91.40;;;;;;5056389;28;20662;-88
2022/05/17 01:43:44;;;;;;;10.50;7.10;;;14.60;91.30;;;;;;5037756;28;20645;-88
2022/05/17 01:46:11;;;;;;;13.68;7.35;;;14.60;91.10;;;;;;5036911;28;20292;-89
2022/05/17 01:48:37;;;;;;;11.17;7.50;;;14.60;90.90;;;;;;5038454;28;20188;-89
2022/05/17 01:51:05;;;;;;;16.47;7.80;;;14.60;90.80;;;;;;5037982;28;20706;-88
2022/05/17 01:53:31;;;;;;;16.73;8.13;;;14.50;90.90;;;;;;5038727;28;20176;-89
2022/05/17 01:55:57;;;;;;;13.70;7.60;;;14.40;90.90;;;;;;5037484;28;20183;-88
2022/05/17 01:58:22;;;;;;;16.17;8.30;;;14.40;91.10;;;;;;5055189;28;20267;-88
2022/05/17 02:00:48;;;;;;;15.33;8.07;;;14.50;91.20;;;;;;5037352;28;20206;-88
2022/05/17 02:03:14;;;;;;;11.07;7.67;;;14.50;91.10;;;;;;5054529;28;20263;-88
2022/05/17 02:05:39;;;;;;;11.10;8.20;;;14.50;91.20;;;;;;5038087;28;20199;-88
2022/05/17 02:08:05;;;;;;;13.17;8.30;;;14.40;91.20;;;;;;5055990;28;20172;-88
2022/05/17 02:10:31;;;;;;;16.10;7.80;;;14.50;91.40;;;;;;5037806;28;20283;-88
2022/05/17 02:12:58;;;;;;;14.30;8.27;;;14.50;91.50;;;;;;5055437;28;20172;-88
2022/05/17 02:15:25;;;;;;;16.98;8.63;;;14.50;91.40;;;;;;5036615;28;20191;-89
2022/05/17 02:17:52;;;;;;;13.48;9.32;;;14.50;91.40;;;;;;5055298;28;20172;-88
2022/05/17 02:20:18;;;;;;;15.65;9.65;;;14.40;91.40;;;;;;5037412;28;20195;-88
2022/05/17 02:22:44;;;;;;;12.50;9.43;;;14.50;91.50;;;;;;5036462;28;20310;-88
2022/05/17 02:25:11;;;;;;;15.80;10.23;;;14.40;91.60;;;;;;5037606;28;20211;-89
2022/05/17 02:27:38;;;;;;;15.63;9.37;;;14.30;91.80;;;;;;5038056;28;20179;-88
2022/05/17 02:30:06;;;;;;;14.73;9.50;;;14.40;91.90;;;;;;5037350;28;20203;-89
2022/05/17 02:32:32;;;;;;;13.97;8.80;;;14.50;92.00;;;;;;5054033;28;20183;-88
2022/05/17 02:34:58;;;;;;;15.53;9.10;;;14.50;91.80;;;;;;5037579;28;20588;-88
2022/05/17 02:37:23;;;;;;;15.80;10.40;;;14.50;91.90;;;;;;5037616;28;20175;-88
2022/05/17 02:39:49;;;;;;;16.97;10.03;;;14.50;91.90;;;;;;5037489;28;20184;-88
2022/05/17 02:42:15;;;;;;;16.47;9.80;;;14.60;91.90;;;;;;5053858;28;20180;-88
2022/05/17 02:44:40;;;;;;;19.23;10.60;;;14.60;91.90;;;;;;5037520;28;20216;-89
2022/05/17 02:47:07;;;;;;;12.77;9.70;;;14.50;91.90;;;;;;5054966;28;20179;-88
2022/05/17 02:49:32;;;;;;;14.27;9.52;;;14.50;92.00;;;;;;5037275;28;20554;-89
2022/05/17 02:52:02;;;;;;;16.35;10.18;;;14.40;92.00;;;;;;5055567;28;20207;-88
2022/05/17 02:54:28;;;;;;;12.10;9.43;;;14.40;92.20;;;;;;5037835;28;20191;-88
2022/05/17 02:56:53;;;;;;;11.73;9.30;;;14.40;92.20;;;;;;5037304;28;20188;-88
2022/05/17 02:59:20;;;;;;;11.80;8.77;;;14.30;92.30;;;;;;5054076;28;20180;-88
2022/05/17 03:01:46;;;;;;;11.10;9.20;;;14.30;92.30;;;;;;5037395;28;20231;-88
2022/05/17 03:04:13;;;;;;;10.97;9.80;;;14.30;92.30;;;;;;5037241;28;20201;-88
2022/05/17 03:06:43;;;;;;;14.20;9.75;;;14.40;92.30;;;;;;5036885;28;20208;-88
2022/05/17 03:09:09;;;;;;;15.73;9.83;;;14.50;92.30;;;;;;5054792;28;20176;-88
2022/05/17 03:11:36;;;;;;;11.53;8.87;;;14.40;92.20;;;;;;5036605;28;20196;-88
2022/05/17 03:14:02;;;;;;;11.20;9.37;;;14.40;92.20;;;;;;5036724;28;20687;-88
2022/05/17 03:16:32;;;;;;;16.75;9.40;;;14.40;92.30;;;;;;5036795;28;20175;-88
2022/05/17 03:18:59;;;;;;;11.63;9.50;;;14.30;92.40;;;;;;5054880;28;20166;-88
2022/05/17 03:21:25;;;;;;;14.63;9.67;;;14.20;92.50;;;;;;5054195;28;20191;-88
2022/05/17 03:23:50;;;;;;;13.60;10.07;;;14.20;92.60;;;;;;5036381;28;20572;-88
2022/05/17 03:26:16;;;;;;;13.40;9.23;;;14.10;92.70;;;;;;5036904;28;20210;-88
2022/05/17 03:28:41;;;;;;;12.30;10.27;;;14.10;92.90;;;;;;5057969;28;20608;-88
2022/05/17 03:31:11;;;;;;;12.73;10.03;;;14.10;93.00;;;;;;5039989;28;20196;-88
2022/05/17 03:33:37;;;;;;;12.10;10.20;;;14.20;93.00;;;;;;5040595;28;20570;-88
2022/05/17 03:36:08;;;;;;;11.77;10.63;;;14.10;93.10;;;;;;5040433;28;20241;-88
2022/05/17 03:38:34;;;;;;;17.03;11.23;;;14.10;93.10;;;;;;5039854;28;20168;-88
2022/05/17 03:41:00;;;;;;;13.63;11.50;;;14.10;93.20;;;;;;5058168;28;20207;-88
2022/05/17 03:43:27;;;;;;;13.10;11.30;;;14.10;93.30;;;;;;5039685;28;20180;-88
2022/05/17 03:45:54;;;;;;;11.40;10.03;;;14.10;93.30;;;;;;5057832;28;20208;-88
2022/05/17 03:48:20;;;;;;;14.57;10.67;;;14.20;93.30;;;;;;5040453;28;20211;-88
2022/05/17 03:50:46;;;;;;;17.00;11.53;;;14.20;93.30;;;;;;5039668;28;20212;-88
2022/05/17 03:53:12;;;;;;;15.37;11.63;;;14.20;93.30;;;;;;5039606;28;20274;-88
2022/05/17 03:55:38;;;;;;;17.90;11.67;;;14.30;93.20;;;;;;5040004;28;20203;-88
2022/05/17 03:58:03;;;;;;;12.97;11.03;;;14.20;93.30;;;;;;5039903;28;20278;-89
2022/05/17 04:00:29;;;;;;;13.57;12.10;;;14.10;93.30;;;;;;5058087;28;20192;-88
2022/05/17 04:02:55;;;;;;;13.63;10.80;;;14.10;93.40;;;;;;5056263;28;20184;-88
2022/05/17 04:05:21;;;;;;;15.63;11.13;;;14.10;93.50;;;;;;5057705;28;20282;-88
2022/05/17 04:07:46;;;;;;;13.77;11.37;;;14.10;93.40;;;;;;5057890;28;20204;-88
2022/05/17 04:10:14;;;;;;;14.37;12.03;;;14.20;93.50;;;;;;5057538;28;20188;-88
2022/05/17 04:12:40;;;;;;;18.43;12.27;;;14.20;93.40;;;;;;5039723;28;20180;-88
2022/05/17 04:15:08;;;;;;;17.07;12.37;;;14.30;93.50;;;;;;5039546;28;20175;-88
2022/05/17 04:17:34;;;;;;;14.00;11.30;;;14.30;93.40;;;;;;5056936;28;20176;-88
2022/05/17 04:20:00;;;;;;;14.00;12.50;;;14.30;93.40;;;;;;5057025;28;20196;-88
2022/05/17 04:22:26;;;;;;;19.53;12.63;;;14.30;93.40;;;;;;5039063;28;20210;-89
2022/05/17 04:24:56;;;;;;;20.67;14.40;;;14.30;93.30;;;;;;5039360;28;20701;-88
2022/05/17 04:27:23;;;;;;;22.57;16.57;;;14.30;93.30;;;;;;5038374;28;20188;-88
2022/05/17 04:29:49;;;;;;;23.80;16.55;;;14.30;93.30;;;;;;5038398;28;20184;-88
2022/05/17 04:32:15;;;;;;;24.37;16.93;;;14.30;93.40;;;;;;5056507;28;20179;-87
2022/05/17 04:34:41;;;;;;;26.52;16.90;;;14.40;93.40;;;;;;5038794;28;20267;-88
2022/05/17 04:37:07;;;;;;;22.98;15.15;;;14.50;93.40;;;;;;5038432;28;20279;-88
2022/05/17 04:39:33;;;;;;;21.75;16.73;;;14.50;93.40;;;;;;5037439;28;20219;-88
2022/05/17 04:41:59;;;;;;;24.17;16.63;;;14.50;93.30;;;;;;5055113;28;20218;-88
2022/05/17 04:44:25;;;;;;;24.17;16.88;;;14.40;93.30;;;;;;5038315;28;20241;-88
2022/05/17 04:46:51;;;;;;;23.50;16.70;;;14.40;93.30;;;;;;5056442;28;20203;-88
2022/05/17 04:49:18;;;;;;;22.60;16.90;;;14.50;93.30;;;;;;5038180;28;20184;-88
2022/05/17 04:51:43;;;;;;;26.30;18.23;;;14.50;93.30;;;;;;5038414;28;20218;-88
2022/05/17 04:54:09;;;;;;;26.10;18.80;;;14.50;93.30;;;;;;5056279;28;20246;-88
2022/05/17 04:56:35;;;;;;;23.60;19.33;;;14.50;93.40;;;;;;5055863;28;20180;-88
2022/05/17 04:59:01;;;;;;;24.60;19.10;;;14.50;93.40;;;;;;5038008;28;20715;-88
2022/05/17 05:01:27;;;;;;;22.30;18.50;;;14.60;93.40;;;;;;5037963;28;20318;-88
2022/05/17 05:03:53;;;;;;;23.50;18.60;;;14.60;93.50;;;;;;5037926;28;20219;-88
2022/05/17 05:06:19;;;;;;;26.50;19.47;;;14.60;93.50;;;;;;5037864;28;20554;-88
2022/05/17 05:08:45;;;;;;;23.20;19.27;;;14.60;93.60;;;;;;5055945;28;20168;-88
2022/05/17 05:11:10;;;;;;;25.27;20.43;;;14.70;93.70;;;;;;5038197;28;20203;-88
2022/05/17 05:13:36;;;;;;;27.30;21.20;;;14.80;93.80;;;;;;5055803;28;20179;-88
2022/05/17 05:16:01;;;;;;;28.67;19.63;;;14.80;93.70;;;;;;5055495;28;20176;-89
2022/05/17 05:18:27;;;;;;;26.93;18.70;;;14.80;93.80;;;;;;5037883;28;20187;-88
2022/05/17 05:21:11;;;;;;;27.10;18.90;;;14.80;93.80;;;;;;5055752;28;20192;-88
2022/05/17 05:23:38;;;;;;;25.80;18.25;;;14.80;93.80;;;;;;5037872;28;20183;-88
2022/05/17 05:26:05;;;;;;;24.85;18.80;;;14.80;93.80;;;;;;5055406;28;20624;-88
2022/05/17 05:28:31;;;;;;;21.38;17.42;;;14.80;93.80;;;;;;5054482;28;20249;-88
2022/05/17 05:30:57;;;;;;;23.30;16.75;;;14.80;93.80;;;;;;5055967;28;20634;-88
2022/05/17 05:33:23;;;;;;;17.77;15.88;;;14.90;93.80;;;;;;5055897;28;20172;-88
2022/05/17 05:35:50;;;;;;;19.35;16.38;;;14.90;93.80;;;;;;5055717;28;20182;-88
2022/05/17 05:38:16;;;;;;;16.73;14.35;;;15.00;93.80;;;;;;5055328;28;20206;-88
2022/05/17 05:40:41;;;;;;;19.50;15.35;;;14.90;93.80;;;;;;5039680;28;20792;-88
2022/05/17 05:43:08;;;;;;;19.77;15.68;;;15.00;93.80;;;;;;5037841;28;20171;-88
2022/05/17 05:45:33;;;;;;;21.30;14.88;;;15.10;93.80;;;;;;5037471;28;20283;-88
2022/05/17 05:47:59;;;;;;;19.35;15.10;;;15.10;93.80;;;;;;5055613;28;20669;-88
2022/05/17 05:50:25;;;;;;;16.80;14.40;;;15.10;93.70;;;;;;5053312;28;20200;-88
2022/05/17 05:52:51;;;;;;;17.63;14.48;;;15.20;93.70;;;;;;5037130;28;20254;-88
2022/05/17 05:55:21;;;;;;;18.23;15.73;;;15.20;93.70;;;;;;5036842;28;20176;-87
2022/05/17 05:57:48;;;;;;;20.05;17.10;;;15.20;93.70;;;;;;5036981;28;20230;-88
2022/05/17 06:00:16;;;;;;;21.92;17.33;;;15.20;93.60;;;;;;5036606;28;20199;-87
2022/05/17 06:02:42;;;;;;;22.35;17.05;;;15.20;93.60;;;;;;5054639;28;20586;-87
2022/05/17 06:05:08;;;;;;;20.75;17.48;;;15.20;93.70;;;;;;5037178;28;20207;-87
2022/05/17 06:07:35;;;;;;;22.85;17.35;;;15.20;93.60;;;;;;5054902;28;20708;-87
2022/05/17 06:10:02;;;;;;;19.45;17.08;;;15.20;93.70;;;;;;5053865;28;20195;-87
2022/05/17 06:12:27;;;;;;;22.20;16.15;;;15.20;93.60;;;;;;5055025;28;20178;-87
2022/05/17 06:14:53;;;;;;;27.27;18.27;;;15.30;93.60;;;;;;5037207;28;20180;-87
2022/05/17 06:17:23;;;;;;;23.85;17.02;;;15.30;93.60;;;;;;5037242;28;20322;-87
2022/05/17 06:19:49;;;;;;;19.70;16.77;;;15.30;93.60;;;;;;5037713;28;20168;-87
2022/05/17 06:22:15;;;;;;;20.17;17.40;;;15.40;93.60;;;;;;5055115;28;20187;-88
2022/05/17 06:24:40;;;;;;;25.10;18.35;;;15.40;93.60;;;;;;5037237;28;20317;-87
2022/05/17 06:27:06;;;;;;;25.75;18.85;;;15.50;93.60;;;;;;5055702;28;20246;-87
2022/05/17 06:29:32;;;;;;;21.83;17.25;;;15.50;93.60;;;;;;5037297;28;20171;-87
2022/05/17 06:31:57;;;;;;;26.52;20.00;;;15.50;93.60;;;;;;5037320;28;20669;-87
2022/05/17 06:34:23;;;;;;;29.35;20.77;;;15.60;93.60;;;;;;5037069;28;20223;-87
2022/05/17 06:36:48;;;;;;;35.53;22.15;;;15.60;93.50;;;;;;5055242;28;20172;-87
2022/05/17 06:39:14;;;;;;;32.08;21.88;;;15.60;93.50;;;;;;5036891;28;20179;-88
2022/05/17 06:41:39;;;;;;;42.00;24.58;;;15.60;93.60;;;;;;5037305;28;20191;-87
2022/05/17 06:44:06;;;;;;;39.65;23.55;;;15.70;93.60;;;;;;5037419;28;20171;-87
2022/05/17 06:46:32;;;;;;;44.83;25.17;;;15.60;93.70;;;;;;5055103;28;20203;-88
2022/05/17 06:48:58;;;;;;;48.17;25.45;;;15.60;93.60;;;;;;5036785;28;20266;-87
2022/05/17 06:51:23;;;;;;;43.15;25.50;;;15.60;93.70;;;;;;5036958;28;20215;-88
2022/05/17 06:53:49;;;;;;;46.60;25.35;;;15.60;93.70;;;;;;5037084;28;20172;-88
2022/05/17 06:56:15;;;;;;;53.22;25.20;;;15.70;93.70;;;;;;5053531;28;20531;-87
2022/05/17 06:58:40;;;;;;;45.25;25.23;;;15.70;93.70;;;;;;5037353;28;20182;-87
2022/05/17 07:01:06;;;;;;;56.80;26.85;;;15.70;93.70;;;;;;5037959;28;20207;-88
2022/05/17 07:03:31;;;;;;;61.83;28.73;;;15.70;93.80;;;;;;5046097;28;20172;-87
2022/05/17 07:05:57;;;;;;;59.28;30.35;;;15.70;93.80;;;;;;5041597;28;20200;-87
2022/05/17 07:08:23;;;;;;;62.45;30.13;;;15.80;93.80;;;;;;5041424;28;20184;-88
2022/05/17 07:13:33;;;;;;;62.95;32.17;;;15.80;93.80;;;;;;5059120;28;20683;-88
2022/05/17 07:15:59;;;;;;;58.15;31.83;;;15.80;93.70;;;;;;5040875;28;20168;-88
2022/05/17 07:18:26;;;;;;;60.97;34.13;;;15.80;93.70;;;;;;5058058;28;20531;-87
2022/05/17 07:20:53;;;;;;;54.88;33.88;;;15.80;93.80;;;;;;5058642;28;20932;-87
2022/05/17 07:23:19;;;;;;;53.13;31.98;;;15.80;93.70;;;;;;5040490;28;20202;-87
2022/05/17 07:25:45;;;;;;;54.92;33.47;;;15.80;93.80;;;;;;5058808;28;20200;-88
2022/05/17 07:28:19;;;;;;;52.15;32.25;;;15.80;93.80;;;;;;5040509;28;20176;-88
2022/05/17 07:30:46;;;;;;;59.03;31.73;;;15.80;93.80;;;;;;5040520;28;20196;-87
2022/05/17 07:33:12;;;;;;;46.92;29.73;;;15.90;93.80;;;;;;5041131;28;20218;-87
2022/05/17 07:35:37;;;;;;;49.45;29.38;;;15.90;93.70;;;;;;5040609;28;20184;-88
2022/05/17 07:38:04;;;;;;;54.80;31.02;;;15.90;93.70;;;;;;5058595;28;20199;-87
2022/05/17 07:40:30;;;;;;;53.10;31.30;;;16.00;93.60;;;;;;5040254;28;20206;-87
2022/05/17 07:42:55;;;;;;;45.97;28.63;;;16.00;93.60;;;;;;5058433;28;20168;-88
2022/05/17 07:45:21;;;;;;;44.65;27.45;;;16.10;93.50;;;;;;5058638;28;20257;-88
2022/05/17 07:47:47;;;;;;;50.88;29.40;;;16.10;93.50;;;;;;5040497;28;20225;-87
2022/05/17 07:50:13;;;;;;;49.42;27.52;;;16.10;93.40;;;;;;5058103;28;20215;-87
2022/05/17 07:52:39;;;;;;;43.05;28.63;;;16.10;93.40;;;;;;5040486;28;20168;-87
2022/05/17 07:55:05;;;;;;;42.97;27.88;;;16.10;93.40;;;;;;5058265;28;20228;-87
2022/05/17 07:57:31;;;;;;;45.15;27.73;;;16.10;93.30;;;;;;5058794;28;20176;-87
2022/05/17 07:59:56;;;;;;;47.92;26.77;;;16.10;93.30;;;;;;5040208;28;20294;-87
2022/05/17 08:02:22;;;;;;;42.55;27.85;;;16.10;93.40;;;;;;5040594;28;20180;-87
2022/05/17 08:04:48;;;;;;;53.63;29.23;;;16.10;93.40;;;;;;5040491;28;20207;-87
2022/05/17 08:07:13;;;;;;;47.95;30.05;;;16.20;93.50;;;;;;5040734;28;20176;-87
2022/05/17 08:09:39;;;;;;;50.22;29.67;;;16.30;93.50;;;;;;5040495;28;20630;-87
2022/05/17 08:12:07;;;;;;;43.22;29.08;;;16.30;93.50;;;;;;5040614;28;20221;-87
2022/05/17 08:14:37;;;;;;;43.83;28.85;;;16.20;93.40;;;;;;5057760;28;20533;-88
2022/05/17 08:17:06;;;;;;;51.92;32.42;;;16.30;93.50;;;;;;5039715;28;20172;-87
2022/05/17 08:19:32;;;;;;;50.53;32.83;;;16.40;93.50;;;;;;5039180;28;20172;-88
2022/05/17 08:21:57;;;;;;;51.25;31.90;;;16.30;93.50;;;;;;5039198;28;20199;-88
2022/05/17 08:24:23;;;;;;;54.70;33.10;;;16.30;93.40;;;;;;5039462;28;20175;-88
2022/05/17 08:29:32;;;;;;;51.85;32.10;;;16.30;93.40;;;;;;5057461;28;20214;-87
2022/05/17 08:34:42;;;;;;;46.22;31.50;;;16.40;93.50;;;;;;5060265;28;20171;-88
2022/05/17 08:37:08;;;;;;;53.42;33.75;;;16.40;93.40;;;;;;5039726;28;20270;-87
2022/05/17 08:39:33;;;;;;;52.45;33.83;;;16.50;93.30;;;;;;5057842;28;20168;-87
2022/05/17 08:42:27;;;;;;;49.03;31.85;;;16.50;93.40;;;;;;5040385;28;20669;-88
2022/05/17 08:45:02;;;;;;;41.38;27.20;;;16.60;93.40;;;;;;5038094;28;20275;-87
2022/05/17 08:47:49;;;;;;;41.60;26.60;;;16.70;93.20;;;;;;5056490;28;20152;-88
2022/05/17 08:50:25;;;;;;;39.65;25.85;;;16.60;93.10;;;;;;5038135;28;20275;-88
2022/05/17 08:52:54;;;;;;;38.05;23.05;;;16.80;93.10;;;;;;5037958;28;20171;-88
2022/05/17 08:55:38;;;;;;;33.08;23.63;;;16.70;93.00;;;;;;5039097;28;20206;-88
2022/05/17 08:58:28;;;;;;;34.13;20.75;;;16.70;92.80;;;;;;5057495;28;20172;-88
2022/05/17 09:01:10;;;;;;;31.38;22.45;;;16.70;92.60;;;;;;5056243;28;20192;-88
2022/05/17 09:03:45;;;;;;;25.55;20.13;;;16.90;92.80;;;;;;5037735;28;20168;-88
2022/05/17 09:06:57;;;;;;;26.50;20.05;;;16.80;92.20;;;;;;5054608;28;20210;-89
2022/05/17 09:09:39;;;;;;;26.20;17.75;;;17.00;92.30;;;;;;5029434;28;20651;-89
2022/05/17 09:12:27;;;;;;;23.98;17.95;;;16.80;91.90;;;;;;5057500;28;20167;-89
2022/05/17 09:14:58;;;;;;;22.45;16.80;;;16.90;91.90;;;;;;5039932;28;20275;-86
2022/05/17 09:17:25;;;;;;;20.45;15.75;;;16.90;91.80;;;;;;5039948;28;20171;-87
2022/05/17 09:19:52;;;;;;;17.10;14.52;;;17.00;91.70;;;;;;5039072;28;20575;-87
2022/05/17 09:22:18;;;;;;;21.00;16.45;;;17.20;91.60;;;;;;5039022;28;20203;-86
2022/05/17 09:24:46;;;;;;;19.38;15.48;;;17.30;91.40;;;;;;5037931;28;20665;-87
2022/05/17 09:27:27;;;;;;;19.10;14.88;;;17.20;91.10;;;;;;5040002;28;20180;-88
2022/05/17 09:30:11;;;;;;;22.23;15.65;;;17.10;90.90;;;;;;5057026;28;20190;-88
2022/05/17 09:32:42;;;;;;;20.17;15.65;;;17.20;90.90;;;;;;5056190;28;20207;-88
2022/05/17 09:35:21;;;;;;;20.05;14.75;;;17.30;90.90;;;;;;5055733;28;20503;-88
2022/05/17 09:37:51;;;;;;;16.08;14.35;;;17.30;90.60;;;;;;5057031;28;20160;-87
2022/05/17 09:40:35;;;;;;;18.70;15.57;;;17.40;90.50;;;;;;5055629;28;20670;-87
2022/05/17 09:43:07;;;;;;;21.65;15.88;;;17.50;90.40;;;;;;5037561;28;20184;-88
2022/05/17 09:45:40;;;;;;;20.50;16.02;;;17.40;89.90;;;;;;5038050;28;20321;-88
2022/05/17 09:48:09;;;;;;;19.98;15.35;;;17.20;89.60;;;;;;5055360;28;20545;-88
2022/05/17 09:53:42;;;;;;;18.60;15.68;;;17.20;89.60;;;;;;5056324;28;20163;-88
2022/05/17 09:56:08;;;;;;;19.35;15.48;;;17.30;89.50;;;;;;5038451;28;20618;-87
2022/05/17 09:58:40;;;;;;;19.15;15.88;;;17.40;89.60;;;;;;5039500;28;20310;-88
2022/05/17 10:01:26;;;;;;;17.13;15.32;;;17.30;89.30;;;;;;5061586;28;20290;-89
2022/05/17 10:04:19;;;;;;;20.92;15.65;;;17.50;89.30;;;;;;5037997;28;20172;-88
2022/05/17 10:06:47;;;;;;;19.90;14.82;;;17.60;89.30;;;;;;5036199;28;20314;-88
2022/05/17 10:09:26;;;;;;;16.33;14.25;;;17.70;89.20;;;;;;5054678;28;20186;-89
2022/05/17 10:12:09;;;;;;;16.95;14.65;;;17.70;88.80;;;;;;5054063;28;20245;-89
2022/05/17 10:14:46;;;;;;;17.55;14.68;;;17.70;88.90;;;;;;5053918;28;20179;-88
2022/05/17 10:17:43;;;;;;;21.55;15.02;;;17.70;88.50;;;;;;5052399;28;20175;-89
2022/05/17 10:20:21;;;;;;;21.55;16.23;;;17.60;88.50;;;;;;5054385;28;20241;-87
2022/05/17 10:23:05;;;;;;;24.65;16.00;;;17.70;88.20;;;;;;5036502;28;20175;-88
2022/05/17 10:25:43;;;;;;;17.67;14.80;;;17.80;88.40;;;;;;5036808;28;20631;-87
2022/05/17 10:28:35;;;;;;;19.42;15.93;;;17.70;87.90;;;;;;5053600;28;20159;-86
2022/05/17 10:31:26;;;;;;;18.50;14.75;;;17.80;87.60;;;;;;5054262;28;20180;-86
2022/05/17 10:34:30;;;;;;;21.27;14.68;;;17.80;87.00;;;;;;5036061;28;20615;-86
2022/05/17 10:37:02;;;;;;;22.15;15.35;;;17.70;87.20;;;;;;5053953;28;20669;-86
2022/05/17 10:39:44;;;;;;;23.08;14.75;;;17.80;87.40;;;;;;5057987;28;20160;-86
2022/05/17 10:42:09;;;;;;;22.17;15.80;;;17.80;86.80;;;;;;5058088;28;20164;-87
2022/05/17 10:44:45;;;;;;;19.92;15.98;;;17.80;86.70;;;;;;5040576;28;20558;-86
2022/05/17 10:47:19;;;;;;;23.48;17.08;;;17.80;86.70;;;;;;5057974;28;20623;-86
2022/05/17 10:50:18;;;;;;;21.80;15.85;;;17.70;86.80;;;;;;5057903;28;20175;-87
2022/05/17 10:53:14;;;;;;;20.13;15.45;;;17.60;87.30;;;;;;5039940;28;20772;-88
2022/05/17 10:56:04;;;;;;;21.58;15.77;;;17.60;87.60;;;;;;5058751;28;20255;-87
2022/05/17 10:58:55;;;;;;;19.50;15.60;;;17.60;87.60;;;;;;5057506;28;20164;-87
2022/05/17 11:01:34;;;;;;;16.35;13.90;;;17.70;87.70;;;;;;5056318;28;20240;-87
2022/05/17 11:04:14;;;;;;;13.93;12.57;;;17.60;88.00;;;;;;5040107;28;20195;-86
2022/05/17 11:07:01;;;;;;;19.20;14.70;;;17.50;88.10;;;;;;5055957;28;20701;-86
2022/05/17 11:09:44;;;;;;;18.92;14.85;;;17.50;88.20;;;;;;5056061;28;20176;-86
2022/05/17 11:12:12;;;;;;;17.10;13.98;;;17.50;88.20;;;;;;5040788;28;20593;-85
2022/05/17 11:14:43;;;;;;;15.70;13.80;;;17.50;88.20;;;;;;5040074;28;20689;-86
2022/05/17 11:17:19;;;;;;;20.60;16.30;;;17.50;88.20;;;;;;5058889;28;20638;-86
2022/05/17 11:19:51;;;;;;;18.48;16.20;;;17.50;88.40;;;;;;5057490;28;20148;-86
2022/05/17 11:22:43;;;;;;;18.20;15.77;;;17.50;88.40;;;;;;5038788;28;20661;-86
2022/05/17 11:25:40;;;;;;;18.00;15.48;;;17.50;88.50;;;;;;5056565;28;20566;-86
2022/05/17 11:28:36;;;;;;;18.77;16.02;;;17.50;88.30;;;;;;5055578;28;20257;-87
2022/05/17 11:31:18;;;;;;;20.15;16.40;;;17.40;88.80;;;;;;5057062;28;20286;-87
2022/05/17 11:33:44;;;;;;;17.67;15.07;;;17.30;89.10;;;;;;5056852;28;20152;-86
2022/05/17 11:36:33;;;;;;;18.88;15.25;;;17.40;89.30;;;;;;5056692;28;20305;-85
2022/05/17 11:39:00;;;;;;;19.38;16.55;;;17.40;89.30;;;;;;5038389;28;20209;-86
2022/05/17 11:41:34;;;;;;;19.40;16.40;;;17.40;89.30;;;;;;5038578;28;20704;-84
2022/05/17 11:44:03;;;;;;;18.45;16.42;;;17.50;89.40;;;;;;5056119;28;20210;-85
2022/05/17 11:46:28;;;;;;;20.73;17.98;;;17.50;89.30;;;;;;5054689;28;20234;-86
2022/05/17 11:48:58;;;;;;;18.40;16.55;;;17.50;89.20;;;;;;5054359;28;20195;-86
2022/05/17 11:51:32;;;;;;;20.95;17.65;;;17.50;89.20;;;;;;5055847;28;20237;-85
2022/05/17 11:54:00;;;;;;;23.83;21.15;;;17.50;89.20;;;;;;5038347;28;20626;-85
2022/05/17 11:56:25;;;;;;;22.67;20.05;;;17.40;89.30;;;;;;5054895;28;20676;-86
2022/05/17 11:59:29;;;;;;;20.02;17.88;;;17.40;89.60;;;;;;5054779;28;20180;-86
2022/05/17 12:02:08;;;;;;;19.08;17.13;;;17.40;89.70;;;;;;5028600;28;20204;-85
2022/05/17 12:04:42;;;;;;;20.13;18.02;;;17.30;89.70;;;;;;5038488;28;20175;-85
2022/05/17 12:07:26;;;;;;;19.42;17.30;;;17.30;89.80;;;;;;5037837;28;20199;-85
2022/05/17 12:10:07;;;;;;;21.17;18.98;;;17.30;90.00;;;;;;5054381;28;20182;-86
2022/05/17 12:12:39;;;;;;;22.55;20.20;;;17.30;90.10;;;;;;5055602;28;20163;-85
2022/05/17 12:15:14;;;;;;;20.73;18.63;;;17.30;90.30;;;;;;5054416;28;20187;-86
2022/05/17 12:17:45;;;;;;;21.75;19.50;;;17.30;90.30;;;;;;5055592;28;20164;-85
2022/05/17 12:20:32;;;;;;;21.38;18.38;;;17.30;90.40;;;;;;5054223;28;20287;-86
2022/05/17 12:23:16;;;;;;;16.05;14.35;;;17.40;90.40;;;;;;5055367;28;20167;-86
2022/05/17 12:26:05;;;;;;;15.07;13.68;;;17.30;90.20;;;;;;5037510;28;20200;-86
2022/05/17 12:28:51;;;;;;;13.70;12.40;;;17.50;90.40;;;;;;5054052;28;20207;-85
2022/05/17 12:31:26;;;;;;;14.23;12.82;;;17.50;90.40;;;;;;5037401;28;20567;-84
2022/05/17 12:33:52;;;;;;;14.50;13.07;;;17.60;90.40;;;;;;5055246;28;20572;-85
2022/05/17 12:36:26;;;;;;;13.60;12.25;;;17.60;90.50;;;;;;5055547;28;20168;-84
2022/05/17 12:44:46;;;;;;;7.53;6.82;;;17.90;90.10;;;;;;5055651;28;20221;-85
2022/05/17 12:47:21;;;;;;;8.93;7.45;;;17.70;89.10;;;;;;5053871;28;20645;-85
2022/05/17 12:49:52;;;;;;;9.63;8.50;;;17.50;88.60;;;;;;5054783;28;20160;-85
2022/05/17 12:52:25;;;;;;;9.63;8.73;;;17.50;88.80;;;;;;5055197;28;20534;-85
2022/05/17 12:54:51;;;;;;;10.85;9.73;;;17.50;88.80;;;;;;5055310;28;20536;-84
2022/05/17 12:57:24;;;;;;;10.32;9.43;;;17.60;89.30;;;;;;5054809;28;20179;-85
2022/05/17 12:59:50;;;;;;;10.77;9.77;;;17.70;89.50;;;;;;5054206;28;20636;-85
2022/05/17 13:02:25;;;;;;;11.30;10.30;;;17.80;89.70;;;;;;5055076;28;20263;-85
2022/05/17 13:04:51;;;;;;;11.82;10.00;;;17.80;89.90;;;;;;5054811;28;20206;-85
2022/05/17 13:07:20;;;;;;;11.57;10.48;;;17.80;89.70;;;;;;5036863;28;20549;-85
2022/05/17 13:09:58;;;;;;;11.50;10.48;;;17.80;89.90;;;;;;5036656;28;20634;-85